sensor_id;sensor_type;location;lat;lon;timestamp;P1;durP1;ratioP1;P2;durP2;ratioP2
19664;SDS011;9980;51.020;7.772;2023-07-13T00:02:17;2.60;;;1.45;;
19664;SDS011;9980;51.020;7.772;2023-07-13T00:04:44;3.70;;;1.40;;
19664;SDS011;9980;51.020;7.772;2023-07-13T00:07:12;2.13;;;1.20;;
19664;SDS011;9980;51.020;7.772;2023-07-13T00:09:40;2.17;;;1.10;;
19664;SDS011;9980;51.020;7.772;2023-07-13T00:12:30;2.30;;;1.33;;
19664;SDS011;9980;51.020;7.772;2023-07-13T00:14:58;2.90;;;1.17;;
19664;SDS011;9980;51.020;7.772;2023-07-13T00:17:28;2.23;;;1.20;;
19664;SDS011;9980;51.020;7.772;2023-07-13T00:19:55;1.70;;;1.60;;
19664;SDS011;9980;51.020;7.772;2023-07-13T00:22:24;2.10;;;1.50;;
19664;SDS011;9980;51.020;7.772;2023-07-13T00:24:53;3.97;;;1.17;;
19664;SDS011;9980;51.020;7.772;2023-07-13T00:27:24;2.60;;;1.40;;
19664;SDS011;9980;51.020;7.772;2023-07-13T00:29:53;3.03;;;1.90;;
19664;SDS011;9980;51.020;7.772;2023-07-13T00:32:19;3.63;;;1.73;;
19664;SDS011;9980;51.020;7.772;2023-07-13T00:34:47;3.60;;;1.70;;
19664;SDS011;9980;51.020;7.772;2023-07-13T00:37:14;2.20;;;2.00;;
19664;SDS011;9980;51.020;7.772;2023-07-13T00:39:41;3.33;;;1.87;;
19664;SDS011;9980;51.020;7.772;2023-07-13T00:42:08;2.87;;;1.90;;
19664;SDS011;9980;51.020;7.772;2023-07-13T00:44:35;3.70;;;2.30;;
19664;SDS011;9980;51.020;7.772;2023-07-13T00:47:02;4.10;;;2.63;;
19664;SDS011;9980;51.020;7.772;2023-07-13T00:49:30;2.77;;;2.27;;
19664;SDS011;9980;51.020;7.772;2023-07-13T00:52:02;3.40;;;2.10;;
19664;SDS011;9980;51.020;7.772;2023-07-13T00:54:35;2.13;;;1.77;;
19664;SDS011;9980;51.020;7.772;2023-07-13T00:57:07;2.83;;;1.90;;
19664;SDS011;9980;51.020;7.772;2023-07-13T00:59:42;3.43;;;2.10;;
19664;SDS011;9980;51.020;7.772;2023-07-13T01:02:14;4.53;;;2.07;;
19664;SDS011;9980;51.020;7.772;2023-07-13T01:04:42;2.83;;;2.23;;
19664;SDS011;9980;51.020;7.772;2023-07-13T01:07:10;3.80;;;2.07;;
19664;SDS011;9980;51.020;7.772;2023-07-13T01:09:38;2.70;;;2.27;;
19664;SDS011;9980;51.020;7.772;2023-07-13T01:12:05;2.57;;;1.73;;
19664;SDS011;9980;51.020;7.772;2023-07-13T01:14:33;2.40;;;1.60;;
19664;SDS011;9980;51.020;7.772;2023-07-13T01:17:00;2.40;;;1.90;;
19664;SDS011;9980;51.020;7.772;2023-07-13T01:19:35;3.37;;;1.80;;
19664;SDS011;9980;51.020;7.772;2023-07-13T01:22:07;2.07;;;1.63;;
19664;SDS011;9980;51.020;7.772;2023-07-13T01:24:41;2.23;;;2.00;;
19664;SDS011;9980;51.020;7.772;2023-07-13T01:27:13;4.50;;;2.10;;
19664;SDS011;9980;51.020;7.772;2023-07-13T01:29:45;2.97;;;2.40;;
19664;SDS011;9980;51.020;7.772;2023-07-13T01:32:15;2.83;;;1.70;;
19664;SDS011;9980;51.020;7.772;2023-07-13T01:34:52;2.00;;;1.90;;
19664;SDS011;9980;51.020;7.772;2023-07-13T01:37:21;1.80;;;1.70;;
19664;SDS011;9980;51.020;7.772;2023-07-13T01:39:50;1.33;;;1.23;;
19664;SDS011;9980;51.020;7.772;2023-07-13T01:42:17;2.47;;;1.50;;
19664;SDS011;9980;51.020;7.772;2023-07-13T01:44:47;5.23;;;1.83;;
19664;SDS011;9980;51.020;7.772;2023-07-13T01:47:14;4.17;;;2.13;;
19664;SDS011;9980;51.020;7.772;2023-07-13T01:49:41;3.30;;;1.57;;
19664;SDS011;9980;51.020;7.772;2023-07-13T01:52:08;2.23;;;1.40;;
19664;SDS011;9980;51.020;7.772;2023-07-13T01:54:34;4.43;;;2.13;;
19664;SDS011;9980;51.020;7.772;2023-07-13T01:57:01;2.53;;;1.63;;
19664;SDS011;9980;51.020;7.772;2023-07-13T01:59:29;2.57;;;1.90;;
19664;SDS011;9980;51.020;7.772;2023-07-13T02:01:56;1.40;;;1.30;;
19664;SDS011;9980;51.020;7.772;2023-07-13T02:04:23;5.70;;;1.60;;
19664;SDS011;9980;51.020;7.772;2023-07-13T02:06:50;2.07;;;1.50;;
19664;SDS011;9980;51.020;7.772;2023-07-13T02:09:17;2.20;;;2.00;;
19664;SDS011;9980;51.020;7.772;2023-07-13T02:11:45;2.60;;;2.00;;
19664;SDS011;9980;51.020;7.772;2023-07-13T02:14:11;3.90;;;2.03;;
19664;SDS011;9980;51.020;7.772;2023-07-13T02:16:38;2.53;;;2.00;;
19664;SDS011;9980;51.020;7.772;2023-07-13T02:19:05;3.20;;;1.73;;
19664;SDS011;9980;51.020;7.772;2023-07-13T02:21:33;3.00;;;1.93;;
19664;SDS011;9980;51.020;7.772;2023-07-13T02:24:00;4.00;;;2.10;;
19664;SDS011;9980;51.020;7.772;2023-07-13T02:26:27;2.07;;;1.67;;
19664;SDS011;9980;51.020;7.772;2023-07-13T02:28:54;2.80;;;1.40;;
19664;SDS011;9980;51.020;7.772;2023-07-13T02:31:21;2.00;;;1.50;;
19664;SDS011;9980;51.020;7.772;2023-07-13T02:33:48;3.23;;;2.00;;
19664;SDS011;9980;51.020;7.772;2023-07-13T02:36:16;5.23;;;2.57;;
19664;SDS011;9980;51.020;7.772;2023-07-13T02:38:44;3.00;;;2.30;;
19664;SDS011;9980;51.020;7.772;2023-07-13T02:41:11;3.97;;;2.20;;
19664;SDS011;9980;51.020;7.772;2023-07-13T02:43:39;5.20;;;2.30;;
19664;SDS011;9980;51.020;7.772;2023-07-13T02:46:08;1.63;;;1.50;;
19664;SDS011;9980;51.020;7.772;2023-07-13T02:48:36;2.13;;;1.60;;
19664;SDS011;9980;51.020;7.772;2023-07-13T02:51:06;2.83;;;1.90;;
19664;SDS011;9980;51.020;7.772;2023-07-13T02:53:34;1.87;;;1.77;;
19664;SDS011;9980;51.020;7.772;2023-07-13T02:56:02;3.33;;;2.03;;
19664;SDS011;9980;51.020;7.772;2023-07-13T02:58:31;3.57;;;2.10;;
19664;SDS011;9980;51.020;7.772;2023-07-13T03:00:59;5.03;;;1.90;;
19664;SDS011;9980;51.020;7.772;2023-07-13T03:03:33;2.17;;;1.70;;
19664;SDS011;9980;51.020;7.772;2023-07-13T03:06:01;2.33;;;1.67;;
19664;SDS011;9980;51.020;7.772;2023-07-13T03:08:35;4.70;;;2.27;;
19664;SDS011;9980;51.020;7.772;2023-07-13T03:11:10;3.20;;;1.87;;
19664;SDS011;9980;51.020;7.772;2023-07-13T03:13:42;3.03;;;2.20;;
19664;SDS011;9980;51.020;7.772;2023-07-13T03:16:11;1.83;;;1.73;;
19664;SDS011;9980;51.020;7.772;2023-07-13T03:18:41;2.20;;;1.70;;
19664;SDS011;9980;51.020;7.772;2023-07-13T03:21:10;2.60;;;2.10;;
19664;SDS011;9980;51.020;7.772;2023-07-13T03:23:38;1.60;;;1.43;;
19664;SDS011;9980;51.020;7.772;2023-07-13T03:28:40;3.10;;;2.50;;
19664;SDS011;9980;51.020;7.772;2023-07-13T03:31:16;2.90;;;2.03;;
19664;SDS011;9980;51.020;7.772;2023-07-13T03:33:47;2.50;;;2.00;;
19664;SDS011;9980;51.020;7.772;2023-07-13T03:36:16;2.07;;;1.93;;
19664;SDS011;9980;51.020;7.772;2023-07-13T03:38:52;4.40;;;2.20;;
19664;SDS011;9980;51.020;7.772;2023-07-13T03:41:31;4.50;;;1.80;;
19664;SDS011;9980;51.020;7.772;2023-07-13T03:43:58;2.87;;;1.70;;
19664;SDS011;9980;51.020;7.772;2023-07-13T03:46:26;2.20;;;1.90;;
19664;SDS011;9980;51.020;7.772;2023-07-13T03:48:53;3.50;;;2.00;;
19664;SDS011;9980;51.020;7.772;2023-07-13T03:51:21;4.03;;;1.63;;
19664;SDS011;9980;51.020;7.772;2023-07-13T03:53:48;3.00;;;1.83;;
19664;SDS011;9980;51.020;7.772;2023-07-13T03:56:17;2.53;;;1.60;;
19664;SDS011;9980;51.020;7.772;2023-07-13T03:58:47;1.73;;;1.63;;
19664;SDS011;9980;51.020;7.772;2023-07-13T04:01:19;1.70;;;1.60;;
19664;SDS011;9980;51.020;7.772;2023-07-13T04:03:48;1.97;;;1.87;;
19664;SDS011;9980;51.020;7.772;2023-07-13T04:06:16;2.93;;;2.00;;
19664;SDS011;9980;51.020;7.772;2023-07-13T04:08:52;2.53;;;1.90;;
19664;SDS011;9980;51.020;7.772;2023-07-13T04:11:24;1.60;;;1.50;;
19664;SDS011;9980;51.020;7.772;2023-07-13T04:13:54;2.40;;;1.80;;
19664;SDS011;9980;51.020;7.772;2023-07-13T04:16:22;4.87;;;2.23;;
19664;SDS011;9980;51.020;7.772;2023-07-13T04:18:49;2.17;;;1.97;;
19664;SDS011;9980;51.020;7.772;2023-07-13T04:21:21;2.47;;;2.10;;
19664;SDS011;9980;51.020;7.772;2023-07-13T04:23:48;2.07;;;1.67;;
19664;SDS011;9980;51.020;7.772;2023-07-13T04:26:15;5.93;;;1.80;;
19664;SDS011;9980;51.020;7.772;2023-07-13T04:28:42;2.73;;;1.97;;
19664;SDS011;9980;51.020;7.772;2023-07-13T04:31:09;3.17;;;2.03;;
19664;SDS011;9980;51.020;7.772;2023-07-13T04:33:36;2.77;;;1.97;;
19664;SDS011;9980;51.020;7.772;2023-07-13T04:36:03;3.67;;;1.70;;
19664;SDS011;9980;51.020;7.772;2023-07-13T04:38:31;2.40;;;2.03;;
19664;SDS011;9980;51.020;7.772;2023-07-13T04:41:00;2.23;;;1.87;;
19664;SDS011;9980;51.020;7.772;2023-07-13T04:43:30;5.23;;;1.80;;
19664;SDS011;9980;51.020;7.772;2023-07-13T04:46:03;6.47;;;2.47;;
19664;SDS011;9980;51.020;7.772;2023-07-13T04:48:34;3.03;;;1.70;;
19664;SDS011;9980;51.020;7.772;2023-07-13T04:51:01;4.27;;;1.80;;
19664;SDS011;9980;51.020;7.772;2023-07-13T04:53:29;6.03;;;1.73;;
19664;SDS011;9980;51.020;7.772;2023-07-13T04:55:56;3.77;;;1.77;;
19664;SDS011;9980;51.020;7.772;2023-07-13T04:58:24;4.30;;;1.70;;
19664;SDS011;9980;51.020;7.772;2023-07-13T05:00:52;2.87;;;1.70;;
19664;SDS011;9980;51.020;7.772;2023-07-13T05:03:25;2.97;;;1.50;;
19664;SDS011;9980;51.020;7.772;2023-07-13T05:05:56;3.57;;;1.63;;
19664;SDS011;9980;51.020;7.772;2023-07-13T05:08:29;3.70;;;1.83;;
19664;SDS011;9980;51.020;7.772;2023-07-13T05:10:55;3.30;;;1.80;;
19664;SDS011;9980;51.020;7.772;2023-07-13T05:13:22;5.23;;;1.80;;
19664;SDS011;9980;51.020;7.772;2023-07-13T05:15:57;4.07;;;1.87;;
19664;SDS011;9980;51.020;7.772;2023-07-13T05:18:27;2.03;;;1.37;;
19664;SDS011;9980;51.020;7.772;2023-07-13T05:20:59;3.90;;;1.70;;
19664;SDS011;9980;51.020;7.772;2023-07-13T05:23:30;2.27;;;1.27;;
19664;SDS011;9980;51.020;7.772;2023-07-13T05:26:01;3.37;;;1.30;;
19664;SDS011;9980;51.020;7.772;2023-07-13T05:28:33;4.10;;;1.57;;
19664;SDS011;9980;51.020;7.772;2023-07-13T05:31:00;3.00;;;1.60;;
19664;SDS011;9980;51.020;7.772;2023-07-13T05:33:27;3.93;;;1.23;;
19664;SDS011;9980;51.020;7.772;2023-07-13T05:35:54;1.53;;;1.30;;
19664;SDS011;9980;51.020;7.772;2023-07-13T05:38:21;2.37;;;1.63;;
19664;SDS011;9980;51.020;7.772;2023-07-13T05:40:53;3.60;;;1.40;;
19664;SDS011;9980;51.020;7.772;2023-07-13T05:43:22;3.30;;;1.60;;
19664;SDS011;9980;51.020;7.772;2023-07-13T05:45:50;4.10;;;1.50;;
19664;SDS011;9980;51.020;7.772;2023-07-13T05:48:20;3.07;;;1.60;;
19664;SDS011;9980;51.020;7.772;2023-07-13T05:50:47;3.87;;;1.40;;
19664;SDS011;9980;51.020;7.772;2023-07-13T05:53:15;5.70;;;1.67;;
19664;SDS011;9980;51.020;7.772;2023-07-13T05:55:44;3.37;;;1.60;;
19664;SDS011;9980;51.020;7.772;2023-07-13T05:58:17;4.90;;;1.60;;
19664;SDS011;9980;51.020;7.772;2023-07-13T06:00:44;15.93;;;1.93;;
19664;SDS011;9980;51.020;7.772;2023-07-13T06:03:11;2.77;;;1.67;;
19664;SDS011;9980;51.020;7.772;2023-07-13T06:05:39;4.97;;;1.83;;
19664;SDS011;9980;51.020;7.772;2023-07-13T06:08:06;2.10;;;1.30;;
19664;SDS011;9980;51.020;7.772;2023-07-13T06:10:34;2.27;;;1.30;;
19664;SDS011;9980;51.020;7.772;2023-07-13T06:13:03;3.40;;;1.70;;
19664;SDS011;9980;51.020;7.772;2023-07-13T06:15:30;2.73;;;1.43;;
19664;SDS011;9980;51.020;7.772;2023-07-13T06:17:57;4.70;;;1.73;;
19664;SDS011;9980;51.020;7.772;2023-07-13T06:20:24;2.23;;;1.40;;
19664;SDS011;9980;51.020;7.772;2023-07-13T06:22:52;6.13;;;2.30;;
19664;SDS011;9980;51.020;7.772;2023-07-13T06:25:19;3.00;;;2.00;;
19664;SDS011;9980;51.020;7.772;2023-07-13T06:27:45;3.93;;;1.63;;
19664;SDS011;9980;51.020;7.772;2023-07-13T06:30:12;3.57;;;1.60;;
19664;SDS011;9980;51.020;7.772;2023-07-13T06:32:39;3.83;;;1.63;;
19664;SDS011;9980;51.020;7.772;2023-07-13T06:35:07;2.83;;;1.50;;
19664;SDS011;9980;51.020;7.772;2023-07-13T06:37:34;2.50;;;1.57;;
19664;SDS011;9980;51.020;7.772;2023-07-13T06:40:01;8.73;;;2.03;;
19664;SDS011;9980;51.020;7.772;2023-07-13T06:42:30;4.40;;;1.67;;
19664;SDS011;9980;51.020;7.772;2023-07-13T06:44:56;3.80;;;1.70;;
19664;SDS011;9980;51.020;7.772;2023-07-13T06:47:23;2.60;;;1.50;;
19664;SDS011;9980;51.020;7.772;2023-07-13T06:49:50;5.83;;;1.93;;
19664;SDS011;9980;51.020;7.772;2023-07-13T06:52:17;3.60;;;1.47;;
19664;SDS011;9980;51.020;7.772;2023-07-13T06:54:44;3.57;;;1.57;;
19664;SDS011;9980;51.020;7.772;2023-07-13T06:57:11;3.40;;;1.73;;
19664;SDS011;9980;51.020;7.772;2023-07-13T06:59:38;4.20;;;1.93;;
19664;SDS011;9980;51.020;7.772;2023-07-13T07:02:05;2.30;;;1.70;;
19664;SDS011;9980;51.020;7.772;2023-07-13T07:04:33;4.93;;;1.77;;
19664;SDS011;9980;51.020;7.772;2023-07-13T07:07:00;3.80;;;1.83;;
19664;SDS011;9980;51.020;7.772;2023-07-13T07:09:27;3.53;;;1.40;;
19664;SDS011;9980;51.020;7.772;2023-07-13T07:11:56;5.83;;;2.27;;
19664;SDS011;9980;51.020;7.772;2023-07-13T07:14:29;2.13;;;1.60;;
19664;SDS011;9980;51.020;7.772;2023-07-13T07:16:57;3.77;;;2.10;;
19664;SDS011;9980;51.020;7.772;2023-07-13T07:19:25;2.53;;;1.30;;
19664;SDS011;9980;51.020;7.772;2023-07-13T07:21:55;2.60;;;1.63;;
19664;SDS011;9980;51.020;7.772;2023-07-13T07:24:23;3.23;;;1.73;;
19664;SDS011;9980;51.020;7.772;2023-07-13T07:26:49;3.80;;;1.70;;
19664;SDS011;9980;51.020;7.772;2023-07-13T07:29:19;3.13;;;1.67;;
19664;SDS011;9980;51.020;7.772;2023-07-13T07:31:49;3.67;;;1.70;;
19664;SDS011;9980;51.020;7.772;2023-07-13T07:34:31;2.93;;;1.70;;
19664;SDS011;9980;51.020;7.772;2023-07-13T07:37:01;3.63;;;1.70;;
19664;SDS011;9980;51.020;7.772;2023-07-13T07:39:32;5.63;;;1.80;;
19664;SDS011;9980;51.020;7.772;2023-07-13T07:41:59;1.50;;;1.17;;
19664;SDS011;9980;51.020;7.772;2023-07-13T07:44:26;3.97;;;1.70;;
19664;SDS011;9980;51.020;7.772;2023-07-13T07:46:54;2.60;;;1.47;;
19664;SDS011;9980;51.020;7.772;2023-07-13T07:49:21;4.07;;;1.57;;
19664;SDS011;9980;51.020;7.772;2023-07-13T07:51:48;2.40;;;1.63;;
19664;SDS011;9980;51.020;7.772;2023-07-13T07:54:16;4.37;;;1.60;;
19664;SDS011;9980;51.020;7.772;2023-07-13T07:57:03;3.73;;;1.50;;
19664;SDS011;9980;51.020;7.772;2023-07-13T07:59:33;2.50;;;1.37;;
19664;SDS011;9980;51.020;7.772;2023-07-13T08:02:05;3.13;;;1.70;;
19664;SDS011;9980;51.020;7.772;2023-07-13T08:04:52;2.43;;;1.50;;
19664;SDS011;9980;51.020;7.772;2023-07-13T08:07:22;3.40;;;1.40;;
19664;SDS011;9980;51.020;7.772;2023-07-13T08:09:52;2.43;;;1.30;;
19664;SDS011;9980;51.020;7.772;2023-07-13T08:12:19;3.50;;;1.30;;
19664;SDS011;9980;51.020;7.772;2023-07-13T08:14:50;1.90;;;1.37;;
19664;SDS011;9980;51.020;7.772;2023-07-13T08:17:20;1.93;;;1.20;;
19664;SDS011;9980;51.020;7.772;2023-07-13T08:19:47;2.20;;;1.37;;
19664;SDS011;9980;51.020;7.772;2023-07-13T08:22:14;4.17;;;1.40;;
19664;SDS011;9980;51.020;7.772;2023-07-13T08:24:41;2.63;;;1.30;;
19664;SDS011;9980;51.020;7.772;2023-07-13T08:27:09;4.47;;;1.70;;
19664;SDS011;9980;51.020;7.772;2023-07-13T08:29:38;4.20;;;1.13;;
19664;SDS011;9980;51.020;7.772;2023-07-13T08:32:06;3.57;;;1.33;;
19664;SDS011;9980;51.020;7.772;2023-07-13T08:34:36;2.53;;;1.50;;
19664;SDS011;9980;51.020;7.772;2023-07-13T08:37:03;2.87;;;1.50;;
19664;SDS011;9980;51.020;7.772;2023-07-13T08:39:30;3.97;;;1.63;;
19664;SDS011;9980;51.020;7.772;2023-07-13T08:42:04;3.03;;;1.67;;
19664;SDS011;9980;51.020;7.772;2023-07-13T08:47:28;3.47;;;1.53;;
19664;SDS011;9980;51.020;7.772;2023-07-13T08:50:02;4.07;;;1.67;;
19664;SDS011;9980;51.020;7.772;2023-07-13T08:52:32;7.00;;;1.80;;
19664;SDS011;9980;51.020;7.772;2023-07-13T08:55:15;4.97;;;1.65;;
19664;SDS011;9980;51.020;7.772;2023-07-13T08:57:52;2.67;;;1.60;;
19664;SDS011;9980;51.020;7.772;2023-07-13T09:00:32;2.38;;;1.65;;
19664;SDS011;9980;51.020;7.772;2023-07-13T09:03:12;2.60;;;1.60;;
19664;SDS011;9980;51.020;7.772;2023-07-13T09:05:54;1.90;;;1.70;;
19664;SDS011;9980;51.020;7.772;2023-07-13T09:11:10;2.08;;;1.30;;
19664;SDS011;9980;51.020;7.772;2023-07-13T09:14:26;4.03;;;1.90;;
19664;SDS011;9980;51.020;7.772;2023-07-13T09:17:14;1.75;;;1.20;;
19664;SDS011;9980;51.020;7.772;2023-07-13T09:19:57;6.15;;;1.70;;
19664;SDS011;9980;51.020;7.772;2023-07-13T09:22:31;6.95;;;1.50;;
19664;SDS011;9980;51.020;7.772;2023-07-13T09:27:58;5.35;;;1.80;;
19664;SDS011;9980;51.020;7.772;2023-07-13T09:30:38;2.42;;;1.73;;
19664;SDS011;9980;51.020;7.772;2023-07-13T09:33:29;4.53;;;1.60;;
19664;SDS011;9980;51.020;7.772;2023-07-13T09:35:57;3.35;;;1.50;;
19664;SDS011;9980;51.020;7.772;2023-07-13T09:38:27;4.50;;;1.60;;
19664;SDS011;9980;51.020;7.772;2023-07-13T09:41:11;3.60;;;1.73;;
19664;SDS011;9980;51.020;7.772;2023-07-13T09:46:43;3.80;;;1.77;;
19664;SDS011;9980;51.020;7.772;2023-07-13T09:49:13;3.08;;;1.20;;
19664;SDS011;9980;51.020;7.772;2023-07-13T09:51:41;1.92;;;1.48;;
19664;SDS011;9980;51.020;7.772;2023-07-13T09:54:17;6.13;;;1.50;;
19664;SDS011;9980;51.020;7.772;2023-07-13T09:56:54;1.83;;;1.17;;
19664;SDS011;9980;51.020;7.772;2023-07-13T09:59:23;1.30;;;1.05;;
19664;SDS011;9980;51.020;7.772;2023-07-13T10:01:56;3.63;;;1.40;;
19664;SDS011;9980;51.020;7.772;2023-07-13T10:04:29;2.35;;;1.15;;
19664;SDS011;9980;51.020;7.772;2023-07-13T10:07:07;2.20;;;1.10;;
19664;SDS011;9980;51.020;7.772;2023-07-13T10:09:54;2.42;;;0.95;;
19664;SDS011;9980;51.020;7.772;2023-07-13T10:12:28;1.77;;;1.02;;
19664;SDS011;9980;51.020;7.772;2023-07-13T10:15:01;2.78;;;1.27;;
19664;SDS011;9980;51.020;7.772;2023-07-13T10:17:49;4.88;;;1.48;;
19664;SDS011;9980;51.020;7.772;2023-07-13T10:20:19;1.83;;;1.35;;
19664;SDS011;9980;51.020;7.772;2023-07-13T10:22:56;5.95;;;1.27;;
19664;SDS011;9980;51.020;7.772;2023-07-13T10:25:31;2.28;;;1.30;;
19664;SDS011;9980;51.020;7.772;2023-07-13T10:28:14;2.60;;;1.00;;
19664;SDS011;9980;51.020;7.772;2023-07-13T10:30:55;1.67;;;1.10;;
19664;SDS011;9980;51.020;7.772;2023-07-13T10:33:26;3.03;;;0.90;;
19664;SDS011;9980;51.020;7.772;2023-07-13T10:36:00;1.48;;;0.90;;
19664;SDS011;9980;51.020;7.772;2023-07-13T10:38:59;2.80;;;1.02;;
19664;SDS011;9980;51.020;7.772;2023-07-13T10:41:31;1.35;;;0.90;;
19664;SDS011;9980;51.020;7.772;2023-07-13T10:44:05;1.25;;;0.90;;
19664;SDS011;9980;51.020;7.772;2023-07-13T10:46:46;1.67;;;0.90;;
19664;SDS011;9980;51.020;7.772;2023-07-13T10:49:15;1.67;;;0.80;;
19664;SDS011;9980;51.020;7.772;2023-07-13T10:51:44;1.80;;;1.10;;
19664;SDS011;9980;51.020;7.772;2023-07-13T10:54:22;2.05;;;0.82;;
19664;SDS011;9980;51.020;7.772;2023-07-13T11:00:10;2.88;;;1.00;;
19664;SDS011;9980;51.020;7.772;2023-07-13T11:02:42;1.90;;;0.90;;
19664;SDS011;9980;51.020;7.772;2023-07-13T11:05:20;2.22;;;0.90;;
19664;SDS011;9980;51.020;7.772;2023-07-13T11:08:04;3.42;;;1.00;;
19664;SDS011;9980;51.020;7.772;2023-07-13T11:10:59;1.75;;;0.95;;
19664;SDS011;9980;51.020;7.772;2023-07-13T11:13:36;1.60;;;0.90;;
19664;SDS011;9980;51.020;7.772;2023-07-13T11:18:44;1.83;;;0.98;;
19664;SDS011;9980;51.020;7.772;2023-07-13T11:21:18;6.70;;;1.20;;
19664;SDS011;9980;51.020;7.772;2023-07-13T11:24:19;1.45;;;0.82;;
19664;SDS011;9980;51.020;7.772;2023-07-13T11:31:42;2.00;;;1.30;;
19664;SDS011;9980;51.020;7.772;2023-07-13T11:37:08;1.48;;;0.80;;
19664;SDS011;9980;51.020;7.772;2023-07-13T11:39:42;1.75;;;0.80;;
19664;SDS011;9980;51.020;7.772;2023-07-13T11:42:14;1.88;;;1.08;;
19664;SDS011;9980;51.020;7.772;2023-07-13T11:44:45;2.90;;;1.00;;
19664;SDS011;9980;51.020;7.772;2023-07-13T11:47:34;2.25;;;1.23;;
19664;SDS011;9980;51.020;7.772;2023-07-13T11:50:16;2.17;;;0.90;;
19664;SDS011;9980;51.020;7.772;2023-07-13T11:52:51;2.00;;;0.88;;
19664;SDS011;9980;51.020;7.772;2023-07-13T11:55:22;1.60;;;1.00;;
19664;SDS011;9980;51.020;7.772;2023-07-13T11:57:53;1.77;;;1.05;;
19664;SDS011;9980;51.020;7.772;2023-07-13T12:00:28;3.53;;;1.17;;
19664;SDS011;9980;51.020;7.772;2023-07-13T12:03:00;3.58;;;1.02;;
19664;SDS011;9980;51.020;7.772;2023-07-13T12:05:31;3.42;;;1.35;;
19664;SDS011;9980;51.020;7.772;2023-07-13T12:07:59;2.10;;;0.90;;
19664;SDS011;9980;51.020;7.772;2023-07-13T12:10:37;1.75;;;0.80;;
19664;SDS011;9980;51.020;7.772;2023-07-13T12:13:04;2.03;;;0.93;;
19664;SDS011;9980;51.020;7.772;2023-07-13T12:18:15;1.60;;;0.80;;
19664;SDS011;9980;51.020;7.772;2023-07-13T12:20:47;2.78;;;0.98;;
19664;SDS011;9980;51.020;7.772;2023-07-13T12:25:51;1.70;;;0.90;;
19664;SDS011;9980;51.020;7.772;2023-07-13T12:28:28;3.15;;;1.02;;
19664;SDS011;9980;51.020;7.772;2023-07-13T12:31:02;4.65;;;1.02;;
19664;SDS011;9980;51.020;7.772;2023-07-13T12:33:33;3.28;;;1.27;;
19664;SDS011;9980;51.020;7.772;2023-07-13T12:36:01;2.50;;;0.90;;
19664;SDS011;9980;51.020;7.772;2023-07-13T12:38:31;3.42;;;1.17;;
19664;SDS011;9980;51.020;7.772;2023-07-13T12:41:07;3.85;;;1.10;;
19664;SDS011;9980;51.020;7.772;2023-07-13T12:43:36;4.00;;;1.10;;
19664;SDS011;9980;51.020;7.772;2023-07-13T12:46:05;4.28;;;1.20;;
19664;SDS011;9980;51.020;7.772;2023-07-13T12:48:50;3.25;;;1.50;;
19664;SDS011;9980;51.020;7.772;2023-07-13T12:51:40;4.28;;;1.10;;
19664;SDS011;9980;51.020;7.772;2023-07-13T12:54:15;2.35;;;1.20;;
19664;SDS011;9980;51.020;7.772;2023-07-13T12:59:51;1.75;;;0.90;;
19664;SDS011;9980;51.020;7.772;2023-07-13T13:02:30;1.83;;;1.08;;
19664;SDS011;9980;51.020;7.772;2023-07-13T13:05:01;4.07;;;1.10;;
19664;SDS011;9980;51.020;7.772;2023-07-13T13:07:31;1.70;;;0.90;;
19664;SDS011;9980;51.020;7.772;2023-07-13T13:09:58;2.15;;;1.30;;
19664;SDS011;9980;51.020;7.772;2023-07-13T13:12:25;1.95;;;1.10;;
19664;SDS011;9980;51.020;7.772;2023-07-13T13:14:53;3.40;;;1.20;;
19664;SDS011;9980;51.020;7.772;2023-07-13T13:17:22;2.20;;;1.13;;
19664;SDS011;9980;51.020;7.772;2023-07-13T13:19:57;2.38;;;1.40;;
19664;SDS011;9980;51.020;7.772;2023-07-13T13:22:24;1.55;;;0.98;;
19664;SDS011;9980;51.020;7.772;2023-07-13T13:24:51;3.17;;;1.48;;
19664;SDS011;9980;51.020;7.772;2023-07-13T13:27:18;2.60;;;1.58;;
19664;SDS011;9980;51.020;7.772;2023-07-13T13:29:49;2.17;;;1.40;;
19664;SDS011;9980;51.020;7.772;2023-07-13T13:32:18;5.18;;;1.73;;
19664;SDS011;9980;51.020;7.772;2023-07-13T13:34:45;2.05;;;1.10;;
19664;SDS011;9980;51.020;7.772;2023-07-13T13:37:16;1.90;;;1.20;;
19664;SDS011;9980;51.020;7.772;2023-07-13T13:39:51;2.88;;;1.42;;
19664;SDS011;9980;51.020;7.772;2023-07-13T13:42:34;2.40;;;1.00;;
19664;SDS011;9980;51.020;7.772;2023-07-13T13:45:01;2.75;;;1.10;;
19664;SDS011;9980;51.020;7.772;2023-07-13T13:47:32;1.88;;;0.90;;
19664;SDS011;9980;51.020;7.772;2023-07-13T13:50:01;2.03;;;1.33;;
19664;SDS011;9980;51.020;7.772;2023-07-13T13:52:39;2.22;;;1.17;;
19664;SDS011;9980;51.020;7.772;2023-07-13T13:55:14;4.80;;;1.30;;
19664;SDS011;9980;51.020;7.772;2023-07-13T13:57:46;3.10;;;1.30;;
19664;SDS011;9980;51.020;7.772;2023-07-13T14:00:15;4.47;;;1.50;;
19664;SDS011;9980;51.020;7.772;2023-07-13T14:02:47;2.00;;;1.40;;
19664;SDS011;9980;51.020;7.772;2023-07-13T14:05:21;4.43;;;1.30;;
19664;SDS011;9980;51.020;7.772;2023-07-13T14:07:55;2.67;;;1.00;;
19664;SDS011;9980;51.020;7.772;2023-07-13T14:10:26;2.40;;;0.95;;
19664;SDS011;9980;51.020;7.772;2023-07-13T14:12:54;4.65;;;1.25;;
19664;SDS011;9980;51.020;7.772;2023-07-13T14:15:25;1.30;;;1.05;;
19664;SDS011;9980;51.020;7.772;2023-07-13T14:17:57;3.00;;;0.90;;
19664;SDS011;9980;51.020;7.772;2023-07-13T14:20:24;2.35;;;1.05;;
19664;SDS011;9980;51.020;7.772;2023-07-13T14:22:53;3.25;;;1.10;;
19664;SDS011;9980;51.020;7.772;2023-07-13T14:25:21;1.63;;;1.00;;
19664;SDS011;9980;51.020;7.772;2023-07-13T14:27:49;1.58;;;0.93;;
19664;SDS011;9980;51.020;7.772;2023-07-13T14:30:25;1.00;;;0.90;;
19664;SDS011;9980;51.020;7.772;2023-07-13T14:32:52;1.50;;;0.90;;
19664;SDS011;9980;51.020;7.772;2023-07-13T14:35:20;2.08;;;0.82;;
19664;SDS011;9980;51.020;7.772;2023-07-13T14:37:50;1.92;;;1.05;;
19664;SDS011;9980;51.020;7.772;2023-07-13T14:40:18;1.92;;;1.00;;
19664;SDS011;9980;51.020;7.772;2023-07-13T14:42:57;3.90;;;1.00;;
19664;SDS011;9980;51.020;7.772;2023-07-13T14:45:25;1.38;;;1.10;;
19664;SDS011;9980;51.020;7.772;2023-07-13T14:47:52;1.25;;;1.02;;
19664;SDS011;9980;51.020;7.772;2023-07-13T14:50:20;2.03;;;0.88;;
19664;SDS011;9980;51.020;7.772;2023-07-13T14:52:56;4.00;;;1.10;;
19664;SDS011;9980;51.020;7.772;2023-07-13T14:55:23;2.42;;;1.00;;
19664;SDS011;9980;51.020;7.772;2023-07-13T14:57:52;5.32;;;1.10;;
19664;SDS011;9980;51.020;7.772;2023-07-13T15:00:20;1.20;;;0.90;;
19664;SDS011;9980;51.020;7.772;2023-07-13T15:02:51;1.17;;;0.80;;
19664;SDS011;9980;51.020;7.772;2023-07-13T15:05:25;1.98;;;0.80;;
19664;SDS011;9980;51.020;7.772;2023-07-13T15:07:58;1.98;;;1.05;;
19664;SDS011;9980;51.020;7.772;2023-07-13T15:10:30;1.20;;;0.75;;
19664;SDS011;9980;51.020;7.772;2023-07-13T15:13:00;4.68;;;1.30;;
19664;SDS011;9980;51.020;7.772;2023-07-13T15:15:50;1.60;;;0.90;;
19664;SDS011;9980;51.020;7.772;2023-07-13T15:18:20;2.10;;;1.20;;
19664;SDS011;9980;51.020;7.772;2023-07-13T15:20:51;5.20;;;1.52;;
19664;SDS011;9980;51.020;7.772;2023-07-13T15:23:19;1.25;;;0.90;;
19664;SDS011;9980;51.020;7.772;2023-07-13T15:25:47;3.55;;;1.17;;
19664;SDS011;9980;51.020;7.772;2023-07-13T15:28:14;1.85;;;0.98;;
19664;SDS011;9980;51.020;7.772;2023-07-13T15:30:45;1.35;;;1.00;;
19664;SDS011;9980;51.020;7.772;2023-07-13T15:33:17;1.77;;;0.88;;
19664;SDS011;9980;51.020;7.772;2023-07-13T15:35:56;3.47;;;0.90;;
19664;SDS011;9980;51.020;7.772;2023-07-13T15:38:25;2.08;;;1.10;;
19664;SDS011;9980;51.020;7.772;2023-07-13T15:40:56;2.80;;;1.00;;
19664;SDS011;9980;51.020;7.772;2023-07-13T15:43:39;4.88;;;1.20;;
19664;SDS011;9980;51.020;7.772;2023-07-13T15:46:06;2.28;;;1.00;;
19664;SDS011;9980;51.020;7.772;2023-07-13T15:48:34;3.33;;;1.10;;
19664;SDS011;9980;51.020;7.772;2023-07-13T15:51:01;4.22;;;1.05;;
19664;SDS011;9980;51.020;7.772;2023-07-13T15:53:32;4.22;;;1.20;;
19664;SDS011;9980;51.020;7.772;2023-07-13T15:56:02;1.88;;;1.23;;
19664;SDS011;9980;51.020;7.772;2023-07-13T15:59:02;1.90;;;1.17;;
19664;SDS011;9980;51.020;7.772;2023-07-13T16:01:30;2.03;;;1.00;;